createdAt,value
2019-02-26T00:00:36.180Z,5.40
2019-02-26T00:05:32.914Z,5.30
2019-02-26T00:10:29.029Z,5.30
2019-02-26T00:15:23.361Z,5.20
2019-02-26T00:20:18.006Z,5.10
2019-02-26T00:25:15.143Z,5.10
2019-02-26T00:30:15.729Z,5.00
2019-02-26T00:35:10.103Z,5.00
2019-02-26T00:40:09.572Z,5.00
2019-02-26T00:45:07.408Z,5.00
2019-02-26T00:50:00.805Z,5.00
2019-02-26T00:54:57.589Z,5.00
2019-02-26T00:59:51.725Z,5.00
2019-02-26T01:04:48.154Z,5.00
2019-02-26T01:09:42.726Z,5.10
2019-02-26T01:14:39.061Z,5.10
2019-02-26T01:19:34.196Z,5.00
2019-02-26T01:24:30.572Z,4.90
2019-02-26T01:29:27.794Z,4.70
2019-02-26T01:34:22.685Z,4.50
2019-02-26T01:39:19.237Z,4.30
2019-02-26T01:44:13.588Z,4.20
2019-02-26T01:49:08.185Z,4.10
2019-02-26T01:54:02.754Z,4.00
2019-02-26T01:59:02.092Z,3.90
2019-02-26T02:03:56.026Z,3.90
2019-02-26T02:08:50.655Z,4.00
2019-02-26T02:13:46.434Z,4.10
2019-02-26T02:18:45.993Z,4.10
2019-02-26T02:23:37.937Z,4.10
2019-02-26T02:28:33.707Z,4.10
2019-02-26T02:33:30.015Z,4.10
2019-02-26T02:38:25.217Z,4.10
2019-02-26T02:43:22.948Z,4.00
2019-02-26T02:48:16.155Z,3.90
2019-02-26T02:53:10.749Z,3.80
2019-02-26T02:58:05.367Z,3.60
2019-02-26T03:02:59.950Z,3.50
2019-02-26T03:07:56.365Z,3.20
2019-02-26T03:12:53.875Z,3.10
2019-02-26T03:17:47.301Z,3.20
2019-02-26T03:22:45.301Z,3.20
2019-02-26T03:27:40.605Z,3.10
2019-02-26T03:32:36.590Z,3.10
2019-02-26T03:37:31.891Z,3.00
2019-02-26T03:42:27.146Z,2.90
2019-02-26T03:47:21.772Z,2.80
2019-02-26T03:52:16.392Z,2.70
2019-02-26T03:57:11.493Z,2.70
2019-02-26T04:02:09.341Z,2.60
2019-02-26T04:07:07.187Z,2.60
2019-02-26T04:12:00.683Z,2.60
2019-02-26T04:16:57.613Z,2.70
2019-02-26T04:22:26.530Z,2.70
2019-02-26T04:27:48.438Z,2.70
2019-02-26T04:32:53.288Z,2.60
2019-02-26T04:38:18.245Z,2.70
2019-02-26T04:43:27.909Z,2.70
2019-02-26T04:48:29.134Z,2.60
2019-02-26T04:53:25.775Z,2.50
2019-02-26T04:58:20.756Z,2.50
2019-02-26T05:03:18.107Z,2.50
2019-02-26T05:08:14.744Z,2.40
2019-02-26T05:13:09.650Z,2.30
2019-02-26T05:18:04.604Z,2.30
2019-02-26T05:23:01.056Z,2.30
2019-02-26T05:27:55.497Z,2.30
2019-02-26T05:32:51.970Z,2.40
2019-02-26T05:37:46.390Z,2.40
2019-02-26T05:42:41.019Z,2.50
2019-02-26T05:47:35.606Z,2.50
2019-02-26T05:52:32.925Z,2.50
2019-02-26T05:57:32.392Z,2.50
2019-02-26T06:02:24.676Z,2.60
2019-02-26T06:07:22.044Z,2.50
2019-02-26T06:12:15.445Z,2.50
2019-02-26T06:17:12.515Z,2.50
2019-02-26T06:22:06.360Z,2.50
2019-02-26T06:27:00.949Z,2.50
2019-02-26T06:31:58.656Z,2.30
2019-02-26T06:36:57.840Z,2.50
2019-02-26T06:41:52.419Z,2.70
2019-02-26T06:46:47.029Z,2.80
2019-02-26T06:51:42.974Z,2.80
2019-02-26T06:56:43.275Z,3.00
2019-02-26T07:01:37.362Z,2.90
2019-02-26T07:06:33.141Z,3.00
2019-02-26T07:11:30.571Z,3.30
2019-02-26T07:16:30.575Z,3.40
2019-02-26T07:21:25.557Z,3.60
2019-02-26T07:26:20.892Z,3.60
2019-02-26T07:31:16.657Z,3.90
2019-02-26T07:36:11.254Z,3.90
2019-02-26T07:41:06.188Z,4.10
2019-02-26T07:46:05.069Z,4.40
2019-02-26T07:50:59.729Z,4.60
2019-02-26T07:55:56.332Z,4.80
2019-02-26T08:00:52.258Z,5.00
2019-02-26T08:05:46.979Z,5.40
2019-02-26T08:10:42.838Z,5.60
2019-02-26T08:15:39.789Z,5.70
2019-02-26T08:20:37.508Z,6.00
2019-02-26T08:25:31.774Z,6.10
2019-02-26T08:30:26.389Z,6.20
2019-02-26T08:35:21.151Z,6.50
2019-02-26T08:40:16.526Z,6.70
2019-02-26T08:45:26.355Z,6.90
2019-02-26T08:50:23.943Z,7.00
2019-02-26T08:55:22.269Z,7.20
2019-02-26T09:00:25.399Z,7.30
2019-02-26T09:05:23.963Z,7.10
2019-02-26T09:10:23.828Z,7.20
2019-02-26T09:15:22.398Z,7.40
2019-02-26T09:20:19.355Z,7.50
2019-02-26T09:25:15.769Z,7.60
2019-02-26T09:30:16.185Z,7.80
2019-02-26T09:35:25.239Z,7.90
2019-02-26T09:40:23.645Z,8.10
2019-02-26T09:45:30.102Z,8.30
2019-02-26T09:50:25.631Z,8.50
2019-02-26T09:55:22.977Z,8.40
2019-02-26T10:00:22.871Z,8.50
2019-02-26T10:05:18.289Z,8.60
2019-02-26T10:10:21.232Z,8.70
2019-02-26T10:15:19.340Z,8.90
2019-02-26T10:20:28.615Z,9.00
2019-02-26T10:25:23.412Z,9.30
2019-02-26T10:30:22.764Z,9.40
2019-02-26T10:35:32.492Z,9.70
2019-02-26T10:40:19.623Z,10.00
2019-02-26T10:45:29.057Z,10.10
2019-02-26T10:50:31.645Z,10.10
2019-02-26T10:55:31.258Z,10.20
2019-02-26T11:00:32.226Z,10.00
2019-02-26T11:05:26.455Z,9.80
2019-02-26T11:10:23.207Z,9.90
2019-02-26T11:15:26.986Z,10.00
2019-02-26T11:20:31.007Z,10.10
2019-02-26T11:25:31.390Z,10.40
2019-02-26T11:30:30.262Z,10.60
2019-02-26T11:35:25.402Z,10.70
2019-02-26T11:40:25.293Z,10.90
2019-02-26T11:45:24.718Z,10.80
2019-02-26T11:50:27.098Z,10.80
2019-02-26T11:55:18.537Z,11.00
2019-02-26T12:00:42.290Z,11.30
2019-02-26T12:05:38.902Z,11.50
2019-02-26T12:10:34.984Z,11.60
2019-02-26T12:15:30.226Z,11.80
2019-02-26T12:20:26.304Z,11.90
2019-02-26T12:25:25.753Z,12.30
2019-02-26T12:30:26.223Z,13.30
2019-02-26T12:35:21.081Z,14.50
2019-02-26T12:40:19.365Z,15.10
2019-02-26T12:45:17.452Z,14.10
2019-02-26T12:50:18.509Z,13.90
2019-02-26T12:55:15.636Z,13.70
2019-02-26T13:00:19.921Z,13.80
2019-02-26T13:05:17.443Z,13.80
2019-02-26T13:10:28.174Z,13.90
2019-02-26T13:15:23.575Z,14.00
2019-02-26T13:20:30.126Z,13.90
2019-02-26T13:25:27.549Z,14.00
2019-02-26T13:30:27.567Z,13.80
2019-02-26T13:35:22.796Z,13.80
2019-02-26T13:40:26.213Z,13.50
2019-02-26T13:45:23.905Z,13.40
2019-02-26T13:50:25.385Z,13.60
2019-02-26T13:55:20.036Z,13.50
2019-02-26T14:00:23.563Z,13.60
2019-02-26T14:05:19.489Z,13.70
2019-02-26T14:10:20.418Z,13.90
2019-02-26T14:15:27.409Z,14.00
2019-02-26T14:20:23.108Z,13.90
2019-02-26T14:25:19.159Z,14.20
2019-02-26T14:30:23.080Z,14.40
2019-02-26T14:35:17.952Z,14.40
2019-02-26T14:40:15.746Z,14.10
2019-02-26T14:45:22.714Z,13.70
2019-02-26T14:50:23.073Z,13.60
2019-02-26T14:55:18.193Z,13.70
2019-02-26T15:00:36.030Z,13.80
2019-02-26T15:05:31.296Z,14.10
2019-02-26T15:10:26.166Z,14.10
2019-02-26T15:15:21.954Z,14.10
2019-02-26T15:20:22.452Z,14.10
2019-02-26T15:25:23.945Z,14.00
2019-02-26T15:30:20.761Z,13.70
2019-02-26T15:35:15.529Z,13.60
2019-02-26T15:40:16.406Z,13.70
2019-02-26T15:45:17.843Z,13.50
2019-02-26T15:50:21.501Z,13.50
2019-02-26T15:55:22.163Z,13.50
2019-02-26T16:00:25.547Z,13.20
2019-02-26T16:05:21.938Z,12.90
2019-02-26T16:10:16.899Z,12.90
2019-02-26T16:15:18.736Z,12.90
2019-02-26T16:20:17.105Z,12.70
2019-02-26T16:25:12.321Z,12.20
2019-02-26T16:30:14.764Z,11.90
2019-02-26T16:35:09.666Z,11.60
2019-02-26T16:40:06.335Z,11.50
2019-02-26T16:45:01.671Z,11.40
2019-02-26T16:49:58.669Z,11.30
2019-02-26T16:54:52.730Z,11.00
2019-02-26T16:59:47.361Z,10.80
2019-02-26T17:04:42.407Z,10.70
2019-02-26T17:09:37.087Z,10.50
2019-02-26T17:14:31.768Z,10.30
2019-02-26T17:19:26.560Z,10.20
2019-02-26T17:24:21.389Z,10.20
2019-02-26T17:29:16.890Z,10.20
2019-02-26T17:34:12.446Z,10.00
2019-02-26T17:39:09.159Z,9.90
2019-02-26T17:44:03.751Z,9.70
2019-02-26T17:48:58.367Z,9.60
2019-02-26T17:53:53.028Z,9.50
2019-02-26T17:58:49.405Z,9.30
2019-02-26T18:03:45.315Z,9.30
2019-02-26T18:08:40.338Z,9.20
2019-02-26T18:13:34.987Z,9.10
2019-02-26T18:18:29.585Z,9.10
2019-02-26T18:23:24.181Z,9.00
2019-02-26T18:28:18.856Z,9.00
2019-02-26T18:33:13.457Z,8.90
2019-02-26T18:38:08.088Z,8.80
2019-02-26T18:43:02.676Z,8.70
2019-02-26T18:47:57.335Z,8.60
2019-02-26T18:52:52.001Z,8.60
2019-02-26T18:57:46.596Z,8.50
2019-02-26T19:02:42.215Z,8.40
2019-02-26T19:07:37.059Z,8.40
2019-02-26T19:12:31.678Z,8.40
2019-02-26T19:17:26.744Z,8.30
2019-02-26T19:22:21.850Z,8.10
2019-02-26T19:27:16.833Z,8.00
2019-02-26T19:32:15.450Z,7.90
2019-02-26T19:37:09.089Z,7.80
2019-02-26T19:42:03.693Z,7.80
2019-02-26T19:46:59.135Z,7.80
2019-02-26T19:51:53.741Z,7.70
2019-02-26T19:56:48.321Z,7.50
2019-02-26T20:01:42.936Z,7.40
2019-02-26T20:06:37.548Z,7.30
2019-02-26T20:11:32.137Z,7.20
2019-02-26T20:16:27.872Z,7.20
2019-02-26T20:21:23.224Z,7.20
2019-02-26T20:26:17.805Z,7.10
2019-02-26T20:31:12.399Z,7.10
2019-02-26T20:36:07.001Z,7.10
2019-02-26T20:41:01.587Z,7.10
2019-02-26T20:45:56.201Z,7.00
2019-02-26T20:50:53.469Z,6.90
2019-02-26T20:55:52.412Z,6.80
2019-02-26T21:00:43.448Z,6.60
2019-02-26T21:05:38.039Z,6.50
2019-02-26T21:10:33.403Z,6.40
2019-02-26T21:15:28.519Z,6.40
2019-02-26T21:20:23.117Z,6.30
2019-02-26T21:25:17.856Z,6.20
2019-02-26T21:30:18.932Z,6.10
2019-02-26T21:35:14.134Z,6.10
2019-02-26T21:40:15.936Z,6.10
2019-02-26T21:45:18.785Z,6.10
2019-02-26T21:50:17.272Z,6.10
2019-02-26T21:55:14.177Z,6.00
2019-02-26T22:00:23.669Z,5.90
2019-02-26T22:05:18.273Z,5.70
2019-02-26T22:10:19.308Z,5.70
2019-02-26T22:15:18.861Z,5.70
2019-02-26T22:20:23.411Z,5.70
2019-02-26T22:25:17.133Z,5.80
2019-02-26T22:30:22.236Z,5.80
2019-02-26T22:35:15.704Z,5.70
2019-02-26T22:40:15.361Z,5.60
2019-02-26T22:45:13.625Z,5.60
2019-02-26T22:50:14.716Z,5.60
2019-02-26T22:55:17.316Z,5.60
2019-02-26T23:00:48.229Z,5.50
2019-02-26T23:05:41.019Z,5.40
2019-02-26T23:10:35.782Z,5.30
2019-02-26T23:15:31.012Z,5.30
2019-02-26T23:20:25.668Z,5.20
2019-02-26T23:25:20.428Z,5.20
2019-02-26T23:30:15.419Z,5.20
2019-02-26T23:35:14.594Z,5.00
2019-02-26T23:40:12.993Z,4.90
2019-02-26T23:45:13.307Z,4.80
2019-02-26T23:50:10.214Z,4.60
2019-02-26T23:55:07.448Z,4.50
